Home > Products > Valid Products > MTR

000
SAUS43 KMQT 050004 COR
MTRP53
METAR KP53 042356Z AUTO 00000KT 13/11 A2999 RMK AO1 SLP159 T01330106
10167 20133 55003





000
SAUS43 KMQT 042354
MTRP59
METAR KP59 042351Z AUTO VRB06KT 17/12 A2996 RMK AO1 SLP145 T01720117
10217 20128 58009 $





000
SAUS43 KMQT 042304 COR
MTRP53
METAR KP53 042256Z AUTO 03003KT 14/11 A2999 RMK AO1 SLP158 T01390106





000
SAUS43 KMQT 042252
MTRP59
METAR KP59 042251Z AUTO VRB04KT 19/12 A2997 RMK AO1 SLP148 T01940117
$





000
SAUS43 KMQT 042252
MTRP59
METAR KP59 042251Z AUTO VRB04KT 19/12 A2997 RMK AO1 SLP148 T01940117
$





000
SAUS43 KMQT 042204 COR
MTRP53
METAR KP53 042156Z AUTO 05006KT 14/11 A3000 RMK AO1 SLP161 T01390111





000
SAUS43 KMQT 042158
MTRP59
METAR KP59 042151Z AUTO VRB04KT 21/13 A2999 RMK AO1 SLP152 T02060128
$





000
SAUS43 KMQT 042103 COR
MTRP53
METAR KP53 042056Z AUTO 04005KT 16/12 A3000 RMK AO1 SLP162 T01560117
50002





000
SAUS43 KMQT 042054
MTRP59
METAR KP59 042051Z AUTO VRB06KT 21/12 A2999 RMK AO1 SLP153 T02060122
55000 $





000
SAUS43 KMQT 042054
MTRP59
METAR KP59 042051Z AUTO VRB06KT 21/12 A2999 RMK AO1 SLP153 T02060122
55000 $





000
SAUS43 KMQT 042004 COR
MTRP53
METAR KP53 041956Z AUTO 02003KT 16/12 A3001 RMK AO1 SLP163 T01610122





000
SAUS43 KMQT 041953
MTRP59
METAR KP59 041951Z AUTO VRB04KT 21/12 A2999 RMK AO1 SLP150 T02110117
$





000
SAUS43 KMQT 041953
MTRP59
METAR KP59 041951Z AUTO VRB04KT 21/12 A2999 RMK AO1 SLP150 T02110117
$





000
SAUS43 KMQT 041903 COR
MTRP53
METAR KP53 041856Z AUTO 04003KT 16/13 A3001 RMK AO1 SLP162 T01610128





000
SAUS43 KMQT 041854
MTRP59
METAR KP59 041851Z AUTO 00000KT 17/12 A2999 RMK AO1 SLP153 T01720122
$





000
SAUS43 KMQT 041854
MTRP59
METAR KP59 041851Z AUTO 00000KT 17/12 A2999 RMK AO1 SLP153 T01720122
$





000
SAUS43 KMQT 041803 COR
MTRP53
METAR KP53 041756Z AUTO 04004KT 16/12 A3000 RMK AO1 SLP159 T01560122
10156 20117 51000





000
SAUS43 KMQT 041803 COR
MTRP53
METAR KP53 041756Z AUTO 04004KT 16/12 A3000 RMK AO1 SLP159 T01560122
10156 20117 51000





000
SAUS43 KMQT 041754
MTRP59
METAR KP59 041751Z AUTO 00000KT 13/10 A2999 RMK AO1 SLP155 T01330100
10139 20100 51003 $





000
SAUS43 KMQT 041754
MTRP59
METAR KP59 041751Z AUTO 00000KT 13/10 A2999 RMK AO1 SLP155 T01330100
10139 20100 51003 $





000
SAUS43 KMQT 041704 COR
MTRP53
METAR KP53 041656Z AUTO 03003KT 14/11 A2999 RMK AO1 SLP158 T01440111





000
SAUS43 KMQT 041704 COR
MTRP53
METAR KP53 041656Z AUTO 03003KT 14/11 A2999 RMK AO1 SLP158 T01440111





000
SAUS43 KMQT 041654
MTRP59
METAR KP59 041651Z AUTO 08003KT 11/09 A2999 RMK AO1 SLP153 T01110089
$





000
SAUS43 KMQT 041654
MTRP59
METAR KP59 041651Z AUTO 08003KT 11/09 A2999 RMK AO1 SLP153 T01110089
$





000
SAUS43 KMQT 041604 COR
MTRP53
METAR KP53 041556Z AUTO 04008KT 12/11 A3000 RMK AO1 SLP162 T01170106





000
SAUS43 KMQT 041554
MTRP59
METAR KP59 041551Z AUTO 00000KT 12/10 A2999 RMK AO1 SLP154 T01220100
$





000
SAUS43 KMQT 041504 COR
MTRP53
METAR KP53 041456Z AUTO 05007KT 12/11 A3000 RMK AO1 SLP159 T01220106
51012





000
SAUS43 KMQT 041504 COR
MTRP53
METAR KP53 041456Z AUTO 05007KT 12/11 A3000 RMK AO1 SLP159 T01220106
51012





000
SAUS43 KMQT 041454
MTRP59
METAR KP59 041451Z AUTO 00000KT 13/11 A2998 RMK AO1 SLP150 T01330106
50004 $





000
SAUS43 KMQT 041403 COR
MTRP53
METAR KP53 041356Z AUTO 07004KT 13/12 A2998 RMK AO1 SLP155 T01330122





000
SAUS43 KMQT 041352
MTRP59
METAR KP59 041351Z AUTO 00000KT 12/09 A3000 RMK AO1 SLP157 T01170094
$





000
SAUS43 KMQT 041304 COR
MTRP53
METAR KP53 041256Z AUTO 00000KT 13/12 A2997 RMK AO1 SLP151 T01330122





000
SAUS43 KMQT 041254
MTRP59
METAR KP59 041251Z AUTO 00000KT 10/09 A2999 RMK AO1 SLP155 T01000089
$





000
SAUS43 KMQT 041254
MTRP59
METAR KP59 041251Z AUTO 00000KT 10/09 A2999 RMK AO1 SLP155 T01000089
$





000
SAUS43 KMQT 041204 COR
MTRP53
METAR KP53 041156Z AUTO 00000KT 13/12 A2996 RMK AO1 SLP145 70002
T01280117 10128 20117 51016





000
SAUS43 KMQT 041204 COR
MTRP53
METAR KP53 041156Z AUTO 00000KT 13/12 A2996 RMK AO1 SLP145 70002
T01280117 10128 20117 51016





000
SAUS43 KMQT 041153
MTRP59
METAR KP59 041151Z AUTO 00000KT 10/09 A2997 RMK AO1 SLP146 70003
T01000094 10144 20100 53016 $





000
SAUS43 KMQT 041104 COR
MTRP53
METAR KP53 041056Z AUTO 00000KT 12/12 A2994 RMK AO1 SLP140 T01220117





000
SAUS43 KMQT 041104 COR
MTRP53
METAR KP53 041056Z AUTO 00000KT 12/12 A2994 RMK AO1 SLP140 T01220117





000
SAUS43 KMQT 041054
MTRP59
METAR KP59 041051Z AUTO 00000KT 11/09 A2995 RMK AO1 SLP143 T01060094
$





000
SAUS43 KMQT 041004 COR
MTRP53
METAR KP53 040956Z AUTO 00000KT 12/11 A2992 RMK AO1 SLP134 T01220111





000
SAUS43 KMQT 040952
MTRP59
METAR KP59 040951Z AUTO 00000KT 12/11 A2993 RMK AO1 SLP134 T01170106
$





000
SAUS43 KMQT 040903 COR
MTRP53
METAR KP53 040856Z AUTO 19004KT 13/12 A2991 RMK AO1 SLP129 T01280117
51009





000
SAUS43 KMQT 040853
MTRP59
METAR KP59 040851Z AUTO 00000KT 12/11 A2992 RMK AO1 SLP128 T01220111
53005 $





000
SAUS43 KMQT 040853
MTRP59
METAR KP59 040851Z AUTO 00000KT 12/11 A2992 RMK AO1 SLP128 T01220111
53005 $





000
SAUS43 KMQT 040803 COR
MTRP53
METAR KP53 040756Z AUTO 00000KT 12/11 A2990 RMK AO1 SLP126 T01220111





000
SAUS43 KMQT 040754
MTRP59
METAR KP59 040751Z AUTO 00000KT 13/12 A2991 RMK AO1 SLP125 T01330117
$





000
SAUS43 KMQT 040754
MTRP59
METAR KP59 040751Z AUTO 00000KT 13/12 A2991 RMK AO1 SLP125 T01330117
$





000
SAUS43 KMQT 040657
MTRP53
METAR KP53 040656Z AUTO 03007KT 12/11 A2989 RMK AO1 SLP122 T01220111





000
SAUS43 KMQT 040653
MTRP59
METAR KP59 040651Z AUTO 25003KT 14/12 A2991 RMK AO1 SLP123 T01390122
$





000
SAUS43 KMQT 040557
MTRP53
METAR KP53 040556Z AUTO 00000KT 13/12 A2988 RMK AO1 SLP119 60001
T01280117 10217 20128 50005





000
SAUS43 KMQT 040553
MTRP59
METAR KP59 040551Z AUTO 32003KT 14/13 A2990 RMK AO1 SLP121 T01440128
10200 20144 51012 $





000
SAUS43 KMQT 040457
MTRP53
METAR KP53 040456Z AUTO 00000KT 13/12 A2989 RMK AO1 SLP121 T01330122
402440128





000
SAUS43 KMQT 040454
MTRP59
METAR KP59 040451Z AUTO 28003KT 15/13 A2990 RMK AO1 SLP120 T01500133
402280117 $





000
SAUS43 KMQT 040454
MTRP59
METAR KP59 040451Z AUTO 28003KT 15/13 A2990 RMK AO1 SLP120 T01500133
402280117 $





000
SAUS43 KMQT 040357
MTRP53
METAR KP53 040356Z AUTO 00000KT 13/12 A2988 RMK AO1 SLP117 T01280117





000
SAUS43 KMQT 040352
MTRP59
METAR KP59 040351Z AUTO 00000KT 16/14 A2988 RMK AO1 SLP115 T01560139
$





000
SAUS43 KMQT 040257
MTRP53
METAR KP53 040256Z AUTO 22003KT 17/14 A2987 RMK AO1 SLP113 60001
T01670144 51014





000
SAUS43 KMQT 040254
MTRP59
METAR KP59 040251Z AUTO 00000KT 17/14 A2987 RMK AO1 SLP110 T01670139
53008 $





000
SAUS43 KMQT 040157
MTRP53
METAR KP53 040156Z AUTO 00000KT 16/13 A2986 RMK AO1 SLP111 P0001
T01560133





000
SAUS43 KMQT 040157
MTRP53
METAR KP53 040156Z AUTO 00000KT 16/13 A2986 RMK AO1 SLP111 P0001
T01560133





000
SAUS43 KMQT 040153
MTRP59
METAR KP59 040151Z AUTO 35006KT 16/13 A2985 RMK AO1 SLP105 T01560128
$





000
SAUS43 KMQT 040057
MTRP53
METAR KP53 040056Z AUTO 00000KT 18/14 A2985 RMK AO1 SLP108 T01780139





000
SAUS43 KMQT 040054
MTRP59
METAR KP59 040051Z AUTO VRB03KT 20/15 A2984 RMK AO1 SLP098 T02000150
$





000
SAUS43 KMQT 032357
MTRP53
METAR KP53 032356Z AUTO 20005KT 22/16 A2983 RMK AO1 SLP099 60001
T02170156 10239 20206 56004





000
SAUS43 KMQT 032357
MTRP53
METAR KP53 032356Z AUTO 20005KT 22/16 A2983 RMK AO1 SLP099 60001
T02170156 10239 20206 56004





000
SAUS43 KMQT 032354
MTRP59
METAR KP59 032351Z AUTO 33006KT 19/14 A2984 RMK AO1 SLP102 T01890144
10228 20117 50015 $





000
SAUS43 KMQT 032257
MTRP53
METAR KP53 032256Z AUTO 20004KT 21/16 A2983 RMK AO1 SLP100 T02110161





000
SAUS43 KMQT 032254
MTRP59
METAR KP59 032251Z AUTO 35009KT 13/09 A2985 RMK AO1 SLP105 T01280094
$





000
SAUS43 KMQT 032158
MTRP53
METAR KP53 032156Z AUTO 20006KT 21/16 A2983 RMK AO1 SLP101 T02060161





000
SAUS43 KMQT 032153
MTRP59
METAR KP59 032151Z AUTO 36011KT 18/13 A2982 RMK AO1 SLP095 T01780128
$





000
SAUS43 KMQT 032057
MTRP53
METAR KP53 032056Z AUTO 21004KT 21/17 A2984 RMK AO1 SLP103 60001
T02060167 58005





000
SAUS43 KMQT 032054
MTRP59
METAR KP59 032051Z AUTO 35010KT 22/14 A2980 RMK AO1 SLP083 T02170144
50000 $





000
SAUS43 KMQT 032003 COR
MTRP53
METAR KP53 031956Z AUTO 00000KT 22/16 A2985 RMK AO1 SLP107 P0001
T02170156





000
SAUS43 KMQT 031958 COR
MTRP53
METAR KP53 031956Z AUTO 00000KT 22/16 A2985 RMK AO1 SLP107 P0001
T02170156





000
SAUS43 KMQT 031957
MTRP53
METAR KP53 031956Z AUTO 00000KT 22/16 A2985 RMK AO1 SLP107 P0001
T02170156





000
SAUS43 KMQT 031954
MTRP59
METAR KP59 031951Z AUTO 32008G19KT 22/14 A2981 RMK AO1 SLP085
T02220144 $





000
SAUS43 KMQT 031954
MTRP59
METAR KP59 031951Z AUTO 32008G19KT 22/14 A2981 RMK AO1 SLP085
T02220144 $





000
SAUS43 KMQT 031857
MTRP53
METAR KP53 031856Z AUTO VRB04KT 24/15 A2985 RMK AO1 SLP105 T02390150





000
SAUS43 KMQT 031857
MTRP53
METAR KP53 031856Z AUTO VRB04KT 24/15 A2985 RMK AO1 SLP105 T02390150





000
SAUS43 KMQT 031853
MTRP59
METAR KP59 031851Z AUTO 35009KT 21/14 A2981 RMK AO1 SLP086 T02110139
$





000
SAUS43 KMQT 031853
MTRP59
METAR KP59 031851Z AUTO 35009KT 21/14 A2981 RMK AO1 SLP086 T02110139
$





000
SAUS43 KMQT 031757
MTRP53
METAR KP53 031756Z AUTO 20006KT 23/14 A2985 RMK AO1 SLP108 T02330144
10244 20167 58008





000
SAUS43 KMQT 031757
MTRP53
METAR KP53 031756Z AUTO 20006KT 23/14 A2985 RMK AO1 SLP108 T02330144
10244 20167 58008





000
SAUS43 KMQT 031754
MTRP59
METAR KP59 031751Z AUTO 31008G17KT 260V330 23/13 A2980 RMK AO1 PK
WND 32026/1724 SLP083 60003 T02280133 10228 20156 55006 $





000
SAUS43 KMQT 031754
MTRP59
METAR KP59 031751Z AUTO 31008G17KT 260V330 23/13 A2980 RMK AO1 PK
WND 32026/1724 SLP083 60003 T02280133 10228 20156 55006 $





000
SAUS43 KMQT 031657
MTRP53
METAR KP53 031656Z AUTO 22008G18KT 23/13 A2986 RMK AO1 SLP112
T02280133





000
SAUS43 KMQT 031657
MTRP53
METAR KP53 031656Z AUTO 22008G18KT 23/13 A2986 RMK AO1 SLP112
T02280133





000
SAUS43 KMQT 031654
MTRP59
METAR KP59 031651Z AUTO 32010G23KT 22/13 A2980 RMK AO1 SLP084
T02170133 $





000
SAUS43 KMQT 031557
MTRP53
METAR KP53 031556Z AUTO 21009KT 23/14 A2987 RMK AO1 SLP114 T02330144





000
SAUS43 KMQT 031554
MTRP59
METAR KP59 031551Z AUTO 28004KT 19/14 A2981 RMK AO1 SLP089 T01890144
$





000
SAUS43 KMQT 031458
MTRP53
METAR KP53 031456Z AUTO 23007KT 190V260 22/13 A2988 RMK AO1 SLP116
T02220133 58011





000
SAUS43 KMQT 031458
MTRP53
METAR KP53 031456Z AUTO 23007KT 190V260 22/13 A2988 RMK AO1 SLP116
T02220133 58011





000
SAUS43 KMQT 031454
MTRP59
METAR KP59 031451Z AUTO 29008G16KT 240V320 18/14 A2982 RMK AO1
SLP093 60003 T01830144 58010 $





000
SAUS43 KMQT 031454
MTRP59
METAR KP59 031451Z AUTO 29008G16KT 240V320 18/14 A2982 RMK AO1
SLP093 60003 T01830144 58010 $





000
SAUS43 KMQT 031357
MTRP53
METAR KP53 031356Z AUTO 22009KT 20/12 A2990 RMK AO1 SLP123 T02000117





000
SAUS43 KMQT 031357
MTRP53
METAR KP53 031356Z AUTO 22009KT 20/12 A2990 RMK AO1 SLP123 T02000117





000
SAUS43 KMQT 031352
MTRP59
METAR KP59 031351Z AUTO VRB04KT 17/14 A2983 RMK AO1 SLP097 P0001
T01670139 $





000
SAUS43 KMQT 031257
MTRP53
METAR KP53 031256Z AUTO 21009KT 17/11 A2991 RMK AO1 SLP129 T01720106





000
SAUS43 KMQT 031257
MTRP53
METAR KP53 031256Z AUTO 21009KT 17/11 A2991 RMK AO1 SLP129 T01720106





000
SAUS43 KMQT 031254
MTRP59
METAR KP59 031251Z AUTO 27007KT 16/14 A2984 RMK AO1 SLP102 P0002
T01610139 $





000
SAUS43 KMQT 031204 COR
MTRP53
METAR KP53 031156Z AUTO 22009KT 17/09 A2991 RMK AO1 SLP129 T01670094
10172 20156 55002





000
SAUS43 KMQT 031204 COR
MTRP53
METAR KP53 031156Z AUTO 22009KT 17/09 A2991 RMK AO1 SLP129 T01670094
10172 20156 55002





000
SAUS43 KMQT 031154
MTRP59
METAR KP59 031151Z AUTO VRB06G16KT 16/13 A2985 RMK AO1 SLP103 P0015
60015 70015 T01610128 10222 20133 50004 $





000
SAUS43 KMQT 031057
MTRP53
METAR KP53 031056Z AUTO 21009KT 16/08 A2991 RMK AO1 SLP130 T01610083





000
SAUS43 KMQT 031057
MTRP53
METAR KP53 031056Z AUTO 21009KT 16/08 A2991 RMK AO1 SLP130 T01610083





000
SAUS43 KMQT 031054
MTRP59
METAR KP59 031051Z AUTO 33008G16KT 16/11 A2987 RMK AO1 PK WND
35026/0957 SLP111 T01560106 $





000
SAUS43 KMQT 030957
MTRP53
METAR KP53 030956Z AUTO 20009KT 17/08 A2992 RMK AO1 SLP131 T01670083





000
SAUS43 KMQT 030954
MTRP59
METAR KP59 030951Z AUTO 35019G24KT 14/09 A2987 RMK AO1 PRESRR SLP111
T01390094





000
SAUS43 KMQT 030858
MTRP53
METAR KP53 030856Z AUTO 21008G18KT 17/08 A2992 RMK AO1 SLP132
T01720083 56005





000
SAUS43 KMQT 030858
MTRP53
METAR KP53 030856Z AUTO 21008G18KT 17/08 A2992 RMK AO1 SLP132
T01720083 56005





000
SAUS43 KMQT 030854
MTRP59
METAR KP59 030851Z AUTO VRB06G17KT 22/11 A2983 RMK AO1 SLP097
T02170111 56007





000
SAUS43 KMQT 030804 COR
MTRP53
METAR KP53 030756Z AUTO 22009KT 17/08 A2992 RMK AO1 SLP133 T01720078





000
SAUS43 KMQT 030753
MTRP59
METAR KP59 030751Z AUTO 29006KT 22/11 A2984 RMK AO1 SLP096 T02170111





000
SAUS43 KMQT 030753
MTRP59
METAR KP59 030751Z AUTO 29006KT 22/11 A2984 RMK AO1 SLP096 T02170111





000
SAUS43 KMQT 030657
MTRP53
METAR KP53 030656Z AUTO 21008KT 17/07 A2992 RMK AO1 SLP132 T01720072





000
SAUS43 KMQT 030654
MTRP59
METAR KP59 030651Z AUTO VRB05KT 19/13 A2985 RMK AO1 SLP103 T01940128





000
SAUS43 KMQT 030558
MTRP53
METAR KP53 030556Z AUTO 21008KT 17/08 A2993 RMK AO1 SLP136 T01720078
10222 20167 56011





000
SAUS43 KMQT 030558
MTRP53
METAR KP53 030556Z AUTO 21008KT 17/08 A2993 RMK AO1 SLP136 T01720078
10222 20167 56011





000
SAUS43 KMQT 030554
MTRP59
METAR KP59 030551Z AUTO 25007KT 19/12 A2986 RMK AO1 SLP105 T01940117
10194 20172 56019





000
SAUS43 KMQT 030554
MTRP59
METAR KP59 030551Z AUTO 25007KT 19/12 A2986 RMK AO1 SLP105 T01940117
10194 20172 56019





000
SAUS43 KMQT 030457
MTRP53
METAR KP53 030456Z AUTO 21008KT 17/08 A2995 RMK AO1 SLP140 T01670083
402280067





000
SAUS43 KMQT 030457
MTRP53
METAR KP53 030456Z AUTO 21008KT 17/08 A2995 RMK AO1 SLP140 T01670083
402280067





000
SAUS43 KMQT 030454
MTRP59
METAR KP59 030451Z AUTO 24007KT 18/11 A2987 RMK AO1 SLP110 T01830106
402000106





000
SAUS43 KMQT 030357
MTRP53
METAR KP53 030356Z AUTO 21008KT 17/08 A2995 RMK AO1 SLP143 T01720078





000
SAUS43 KMQT 030354
MTRP59
METAR KP59 030351Z AUTO 23008KT 18/09 A2989 RMK AO1 SLP117 T01780094





000
SAUS43 KMQT 030257
MTRP53
METAR KP53 030256Z AUTO 20008KT 18/08 A2997 RMK AO1 SLP148 T01830078
53003





000
SAUS43 KMQT 030257
MTRP53
METAR KP53 030256Z AUTO 20008KT 18/08 A2997 RMK AO1 SLP148 T01830078
53003





000
SAUS43 KMQT 030254
MTRP59
METAR KP59 030251Z AUTO 24004KT 17/09 A2991 RMK AO1 SLP125 T01720089
55008





000
SAUS43 KMQT 030157
MTRP53
METAR KP53 030156Z AUTO 20009KT 19/08 A2996 RMK AO1 SLP147 T01940078





000
SAUS43 KMQT 030157
MTRP53
METAR KP53 030156Z AUTO 20009KT 19/08 A2996 RMK AO1 SLP147 T01940078





000
SAUS43 KMQT 030154
MTRP59
METAR KP59 030151Z AUTO VRB04KT 18/09 A2991 RMK AO1 SLP125 T01780089





000
SAUS43 KMQT 030154
MTRP59
METAR KP59 030151Z AUTO VRB04KT 18/09 A2991 RMK AO1 SLP125 T01780089





000
SAUS43 KMQT 030057
MTRP53
METAR KP53 030056Z AUTO 20007G15KT 21/08 A2996 RMK AO1 SLP145
T02060083





000
SAUS43 KMQT 030057
MTRP53
METAR KP53 030056Z AUTO 20007G15KT 21/08 A2996 RMK AO1 SLP145
T02060083





000
SAUS43 KMQT 030054
MTRP59
METAR KP59 030051Z AUTO VRB05KT 18/09 A2992 RMK AO1 SLP129 T01830089





000
SAUS43 KMQT 022357
MTRP53
METAR KP53 022356Z AUTO 20007KT 22/09 A2996 RMK AO1 SLP145 T02220089
10228 20178 56011





000
SAUS43 KMQT 022353
MTRP59
METAR KP59 022351Z AUTO 23003KT 19/10 A2994 RMK AO1 SLP135 T01940100
10200 20161 56010





000
SAUS43 KMQT 022257
MTRP53
METAR KP53 022256Z AUTO 00000KT 19/09 A2996 RMK AO1 SLP147 T01890094





000
SAUS43 KMQT 022257
MTRP53
METAR KP53 022256Z AUTO 00000KT 19/09 A2996 RMK AO1 SLP147 T01890094





000
SAUS43 KMQT 022253
MTRP59
METAR KP59 022251Z AUTO 09003KT 17/11 A2995 RMK AO1 SLP139 T01720111





000
SAUS43 KMQT 022157
MTRP53
METAR KP53 022156Z AUTO 33003KT 19/11 A2998 RMK AO1 SLP153 T01940111





000
SAUS43 KMQT 022154
MTRP59
METAR KP59 022151Z AUTO 00000KT 18/09 A2996 RMK AO1 SLP141 T01830094





000
SAUS43 KMQT 022154
MTRP59
METAR KP59 022151Z AUTO 00000KT 18/09 A2996 RMK AO1 SLP141 T01830094





000
SAUS43 KMQT 022057
MTRP53
METAR KP53 022056Z AUTO 00000KT 18/11 A2999 RMK AO1 SLP158 T01780111
58012





000
SAUS43 KMQT 022052
MTRP59
METAR KP59 022051Z AUTO 00000KT 17/12 A2997 RMK AO1 SLP147 T01670117
58008





000
SAUS43 KMQT 021957
MTRP53
METAR KP53 021956Z AUTO 34003KT 18/11 A3001 RMK AO1 SLP164 T01830106





000
SAUS43 KMQT 021957
MTRP53
METAR KP53 021956Z AUTO 34003KT 18/11 A3001 RMK AO1 SLP164 T01830106





000
SAUS43 KMQT 021954
MTRP59
METAR KP59 021951Z AUTO 10003KT 20/09 A2998 RMK AO1 SLP150 T02000094





000
SAUS43 KMQT 021857
MTRP53
METAR KP53 021856Z AUTO 05006KT 20/11 A3002 RMK AO1 SLP166 T02000106





000
SAUS43 KMQT 021853
MTRP59
METAR KP59 021851Z AUTO 09003KT 18/09 A2999 RMK AO1 SLP152 T01830094





000
SAUS43 KMQT 021757
MTRP53
METAR KP53 021756Z AUTO 04006KT 20/13 A3003 RMK AO1 SLP170 T02000128
10206 20106 57012





000
SAUS43 KMQT 021754
MTRP59
METAR KP59 021751Z AUTO 05005KT 17/10 A2999 RMK AO1 SLP154 T01720100
10194 20139 58007





000
SAUS43 KMQT 021754
MTRP59
METAR KP59 021751Z AUTO 05005KT 17/10 A2999 RMK AO1 SLP154 T01720100
10194 20139 58007





000
SAUS43 KMQT 021657
MTRP53
METAR KP53 021656Z AUTO 02007KT 19/12 A3004 RMK AO1 SLP173 T01940122





000
SAUS43 KMQT 021657
MTRP53
METAR KP53 021656Z AUTO 02007KT 19/12 A3004 RMK AO1 SLP173 T01940122





000
SAUS43 KMQT 021654
MTRP59
METAR KP59 021651Z AUTO 36004KT 17/11 A3000 RMK AO1 SLP159 T01720106





000
SAUS43 KMQT 021557
MTRP53
METAR KP53 021556Z AUTO 06004KT 18/11 A3005 RMK AO1 SLP178 T01780111





000
SAUS43 KMQT 021552
MTRP59
METAR KP59 021551Z AUTO 06003KT 16/10 A3001 RMK AO1 SLP162 T01610100





000
SAUS43 KMQT 021458
MTRP53
METAR KP53 021456Z AUTO VRB03KT 19/09 A3006 RMK AO1 SLP182 T01890094
50004





000
SAUS43 KMQT 021453
MTRP59
METAR KP59 021451Z AUTO VRB05KT 19/09 A3001 RMK AO1 SLP162 T01890094
58001





000
SAUS43 KMQT 021453
MTRP59
METAR KP59 021451Z AUTO VRB05KT 19/09 A3001 RMK AO1 SLP162 T01890094
58001





000
SAUS43 KMQT 021357
MTRP53
METAR KP53 021356Z AUTO VRB03KT 16/09 A3007 RMK AO1 SLP183 T01610089





000
SAUS43 KMQT 021353
MTRP59
METAR KP59 021351Z AUTO 24007KT 17/09 A3003 RMK AO1 SLP167 T01670094





000
SAUS43 KMQT 021353
MTRP59
METAR KP59 021351Z AUTO 24007KT 17/09 A3003 RMK AO1 SLP167 T01670094





000
SAUS43 KMQT 021257
MTRP53
METAR KP53 021256Z AUTO 17003KT 13/08 A3005 RMK AO1 SLP179 T01330083





000
SAUS43 KMQT 021257
MTRP53
METAR KP53 021256Z AUTO 17003KT 13/08 A3005 RMK AO1 SLP179 T01330083





000
SAUS43 KMQT 021253
MTRP59
METAR KP59 021251Z AUTO 23008KT 200V260 14/09 A3002 RMK AO1 SLP165
T01440094





000
SAUS43 KMQT 021157
MTRP53
METAR KP53 021156Z AUTO 19006KT 11/07 A3005 RMK AO1 SLP178 T01060072
10106 20067 51010





000
SAUS43 KMQT 021154
MTRP59
METAR KP59 021151Z AUTO 23008KT 14/08 A3002 RMK AO1 SLP163 T01390083
10150 20122 51007





000
SAUS43 KMQT 021057
MTRP53
METAR KP53 021056Z AUTO 20003KT 09/07 A3005 RMK AO1 SLP178 T00940067





000
SAUS43 KMQT 021057
MTRP53
METAR KP53 021056Z AUTO 20003KT 09/07 A3005 RMK AO1 SLP178 T00940067





000
SAUS43 KMQT 021053
MTRP59
METAR KP59 021051Z AUTO 24007KT 14/07 A3001 RMK AO1 SLP161 T01390067





000
SAUS43 KMQT 020957
MTRP53
METAR KP53 020956Z AUTO 18005KT 08/06 A3003 RMK AO1 SLP172 T00830061





000
SAUS43 KMQT 020957
MTRP53
METAR KP53 020956Z AUTO 18005KT 08/06 A3003 RMK AO1 SLP172 T00830061





000
SAUS43 KMQT 020953
MTRP59
METAR KP59 020951Z AUTO 00000KT 14/06 A3000 RMK AO1 SLP159 T01440061





000
SAUS43 KMQT 020857
MTRP53
METAR KP53 020856Z AUTO 18007KT 08/06 A3002 RMK AO1 SLP168 T00830056
55004





000
SAUS43 KMQT 020857
MTRP53
METAR KP53 020856Z AUTO 18007KT 08/06 A3002 RMK AO1 SLP168 T00830056
55004





000
SAUS43 KMQT 020853
MTRP59
METAR KP59 020851Z AUTO 00000KT 14/07 A3000 RMK AO1 SLP155 T01390067
58004





000
SAUS43 KMQT 020757
MTRP53
METAR KP53 020756Z AUTO 19008KT 07/05 A3002 RMK AO1 SLP168 T00720050





000
SAUS43 KMQT 020757
MTRP53
METAR KP53 020756Z AUTO 19008KT 07/05 A3002 RMK AO1 SLP168 T00720050





000
SAUS43 KMQT 020752
MTRP59
METAR KP59 020751Z AUTO 22003KT 13/08 A3000 RMK AO1 SLP158 T01330083





000
SAUS43 KMQT 020657
MTRP53
METAR KP53 020656Z AUTO 18008KT 07/05 A3003 RMK AO1 SLP173 T00720050





000
SAUS43 KMQT 020654
MTRP59
METAR KP59 020651Z AUTO 23003KT 13/07 A3001 RMK AO1 SLP161 T01330067





000
SAUS43 KMQT 020557
MTRP53
METAR KP53 020556Z AUTO 18008KT 07/05 A3003 RMK AO1 SLP172 T00670050
10133 20067 53004





000
SAUS43 KMQT 020553
MTRP59
METAR KP59 020551Z AUTO 27003KT 12/09 A3001 RMK AO1 SLP161 T01220089
10133 20106 55000





000
SAUS43 KMQT 020457
MTRP53
METAR KP53 020456Z AUTO 18008KT 08/06 A3003 RMK AO1 SLP172 T00780056
401330072





000
SAUS43 KMQT 020452
MTRP59
METAR KP59 020451Z AUTO 00000KT 11/08 A3001 RMK AO1 SLP163 T01060083
401500078





000
SAUS43 KMQT 020357
MTRP53
METAR KP53 020356Z AUTO 19006KT 08/06 A3002 RMK AO1 SLP168 T00830061





000
SAUS43 KMQT 020357
MTRP53
METAR KP53 020356Z AUTO 19006KT 08/06 A3002 RMK AO1 SLP168 T00830061





000
SAUS43 KMQT 020354
MTRP59
METAR KP59 020351Z AUTO 00000KT 11/09 A3000 RMK AO1 SLP161 T01060089





000
SAUS43 KMQT 020354
MTRP59
METAR KP59 020351Z AUTO 00000KT 11/09 A3000 RMK AO1 SLP161 T01060089





000
SAUS43 KMQT 020257
MTRP53
METAR KP53 020256Z AUTO 19005KT 08/07 A3002 RMK AO1 SLP170 T00830067
53001





000
SAUS43 KMQT 020254
MTRP59
METAR KP59 020251Z AUTO 00000KT 11/09 A3001 RMK AO1 SLP162 T01110089
53002





000
SAUS43 KMQT 020254
MTRP59
METAR KP59 020251Z AUTO 00000KT 11/09 A3001 RMK AO1 SLP162 T01110089
53002





000
SAUS43 KMQT 020157
MTRP53
METAR KP53 020156Z AUTO 00000KT 11/07 A3001 RMK AO1 SLP164 T01060072





000
SAUS43 KMQT 020157
MTRP53
METAR KP53 020156Z AUTO 00000KT 11/07 A3001 RMK AO1 SLP164 T01060072





000
SAUS43 KMQT 020152
MTRP59
METAR KP59 020151Z AUTO 00000KT 13/10 A2999 RMK AO1 SLP156 T01280100





000
SAUS43 KMQT 020057
MTRP53
METAR KP53 020056Z AUTO 00000KT 13/06 A3001 RMK AO1 SLP165 T01280061





000
SAUS43 KMQT 020054
MTRP59
METAR KP59 020051Z AUTO 00000KT 13/09 A3000 RMK AO1 SLP160 T01280094





    US Dept of Commerce
    National Oceanic and Atmospheric Administration
    National Weather Service
    1325 East West Highway
    Silver Spring, MD 20910
    Page Author: NWS Internet Services Team
Disclaimer
Information Quality
Credits
Glossary
Privacy Policy
Freedom of Information Act (FOIA)
About Us
Career Opportunities